createdAt,value
2018-04-11T00:00:47.727Z,69.13
2018-04-11T00:01:47.730Z,69.29
2018-04-11T00:02:47.733Z,69.13
2018-04-11T00:03:47.740Z,69.33
2018-04-11T00:04:47.749Z,69.77
2018-04-11T00:05:47.754Z,69.87
2018-04-11T00:06:47.762Z,69.96
2018-04-11T00:07:47.767Z,69.87
2018-04-11T00:08:47.777Z,69.68
2018-04-11T00:09:47.775Z,69.77
2018-04-11T00:10:47.793Z,70.25
2018-04-11T00:11:47.788Z,70.25
2018-04-11T00:12:47.794Z,70.25
2018-04-11T00:13:47.799Z,70.64
2018-04-11T00:14:47.801Z,70.25
2018-04-11T00:15:47.810Z,70.73
2018-04-11T00:16:47.817Z,70.73
2018-04-11T00:17:47.827Z,71.02
2018-04-11T00:18:47.818Z,70.35
2018-04-11T00:19:47.837Z,70.92
2018-04-11T00:20:47.838Z,71.69
2018-04-11T00:21:47.839Z,72.45
2018-04-11T00:22:47.828Z,72.64
2018-04-11T00:23:47.830Z,72.64
2018-04-11T00:24:47.844Z,73.51
2018-04-11T00:25:47.852Z,73.61
2018-04-11T00:26:47.850Z,73.47
2018-04-11T00:27:47.857Z,74.05
2018-04-11T00:28:47.856Z,74.05
2018-04-11T00:29:47.861Z,74.15
2018-04-11T00:30:47.865Z,74.15
2018-04-11T00:31:47.864Z,74.33
2018-04-11T00:32:47.872Z,74.62
2018-04-11T00:33:47.872Z,74.52
2018-04-11T00:34:47.883Z,75.20
2018-04-11T00:35:47.901Z,75.39
2018-04-11T00:36:47.891Z,75.29
2018-04-11T00:37:47.891Z,75.77
2018-04-11T00:38:47.896Z,75.77
2018-04-11T00:39:47.907Z,75.77
2018-04-11T00:40:48.019Z,76.25
2018-04-11T00:41:47.923Z,76.82
2018-04-11T00:42:47.909Z,77.40
2018-04-11T00:43:47.926Z,77.02
2018-04-11T00:44:47.923Z,77.50
2018-04-11T00:45:47.930Z,77.94
2018-04-11T00:46:47.930Z,78.13
2018-04-11T00:47:47.935Z,77.84
2018-04-11T00:48:47.942Z,78.32
2018-04-11T00:49:47.950Z,78.13
2018-04-11T00:50:47.952Z,78.42
2018-04-11T00:51:47.959Z,78.22
2018-04-11T00:52:47.965Z,78.13
2018-04-11T00:53:47.968Z,78.51
2018-04-11T00:54:47.975Z,78.89
2018-04-11T00:55:47.972Z,78.70
2018-04-11T00:56:47.986Z,78.99
2018-04-11T00:57:47.975Z,78.99
2018-04-11T00:58:48.004Z,78.99
2018-04-11T00:59:47.985Z,79.18
2018-04-11T01:00:47.993Z,78.95
2018-04-11T01:01:48.024Z,78.80
2018-04-11T01:02:48.006Z,79.18
2018-04-11T01:03:48.003Z,78.95
2018-04-11T01:04:48.758Z,79.14
2018-04-11T01:05:48.006Z,79.05
2018-04-11T01:06:48.018Z,79.14
2018-04-11T01:07:48.016Z,79.43
2018-04-11T01:08:48.024Z,79.81
2018-04-11T01:09:48.031Z,79.33
2018-04-11T01:10:48.026Z,79.43
2018-04-11T01:11:48.038Z,79.33
2018-04-11T01:12:48.035Z,79.62
2018-04-11T01:13:48.041Z,79.43
2018-04-11T01:14:48.051Z,79.52
2018-04-11T01:15:48.049Z,79.52
2018-04-11T01:16:48.060Z,79.33
2018-04-11T01:17:48.063Z,79.33
2018-04-11T01:18:48.062Z,79.52
2018-04-11T01:19:48.065Z,79.52
2018-04-11T01:20:48.072Z,79.52
2018-04-11T01:21:48.080Z,79.43
2018-04-11T01:22:48.080Z,79.43
2018-04-11T01:23:48.084Z,79.43
2018-04-11T01:24:48.090Z,79.62
2018-04-11T01:25:48.096Z,79.62
2018-04-11T01:26:48.106Z,79.43
2018-04-11T01:27:48.095Z,79.33
2018-04-11T01:28:48.112Z,79.72
2018-04-11T01:29:48.111Z,79.43
2018-04-11T01:30:48.149Z,79.24
2018-04-11T01:31:48.124Z,79.58
2018-04-11T01:32:48.114Z,80.29
2018-04-11T01:33:48.124Z,80.06
2018-04-11T01:34:48.127Z,80.82
2018-04-11T01:35:48.127Z,80.73
2018-04-11T01:36:48.137Z,80.73
2018-04-11T01:37:48.138Z,80.25
2018-04-11T01:38:48.147Z,80.35
2018-04-11T01:39:48.149Z,80.25
2018-04-11T01:40:48.156Z,80.16
2018-04-11T01:41:48.159Z,80.73
2018-04-11T01:42:48.153Z,80.16
2018-04-11T01:43:48.160Z,80.44
2018-04-11T01:44:48.166Z,80.16
2018-04-11T01:45:48.166Z,80.35
2018-04-11T01:46:48.173Z,80.54
2018-04-11T01:47:48.176Z,80.63
2018-04-11T01:48:48.177Z,80.16
2018-04-11T01:49:48.187Z,80.35
2018-04-11T01:50:48.187Z,80.06
2018-04-11T01:51:48.190Z,80.16
2018-04-11T01:52:48.194Z,80.73
2018-04-11T01:53:48.203Z,80.73
2018-04-11T01:54:48.265Z,80.40
2018-04-11T01:55:48.213Z,80.69
2018-04-11T01:56:48.211Z,80.82
2018-04-11T01:57:48.233Z,81.07
2018-04-11T01:58:48.225Z,81.07
2018-04-11T01:59:48.219Z,80.98
2018-04-11T02:00:48.233Z,81.26
2018-04-11T02:01:48.232Z,81.16
2018-04-11T02:02:48.241Z,81.07
2018-04-11T02:03:48.248Z,81.16
2018-04-11T02:04:48.237Z,81.07
2018-04-11T02:05:48.252Z,81.26
2018-04-11T02:06:48.245Z,81.84
2018-04-11T02:07:48.281Z,80.98
2018-04-11T02:08:48.265Z,81.36
2018-04-11T02:09:48.262Z,81.26
2018-04-11T02:10:48.262Z,81.26
2018-04-11T02:11:48.270Z,81.26
2018-04-11T02:12:48.269Z,81.84
2018-04-11T02:13:48.271Z,81.65
2018-04-11T02:14:50.936Z,81.65
2018-04-11T02:15:51.009Z,81.65
2018-04-11T02:16:51.834Z,81.74
2018-04-11T02:17:50.884Z,81.65
2018-04-11T02:18:48.293Z,81.45
2018-04-11T02:19:48.291Z,81.74
2018-04-11T02:20:48.301Z,81.93
2018-04-11T02:21:48.304Z,82.03
2018-04-11T02:22:48.302Z,81.84
2018-04-11T02:23:48.311Z,81.93
2018-04-11T02:24:48.317Z,81.45
2018-04-11T02:25:48.315Z,81.55
2018-04-11T02:26:48.322Z,82.03
2018-04-11T02:27:48.327Z,82.18
2018-04-11T02:28:49.151Z,82.46
2018-04-11T02:29:48.332Z,82.37
2018-04-11T02:30:48.333Z,82.18
2018-04-11T02:31:48.336Z,82.46
2018-04-11T02:32:48.349Z,82.28
2018-04-11T02:33:48.350Z,82.46
2018-04-11T02:34:48.348Z,82.37
2018-04-11T02:35:48.360Z,82.08
2018-04-11T02:36:48.351Z,82.56
2018-04-11T02:37:48.357Z,82.28
2018-04-11T02:38:48.364Z,82.56
2018-04-11T02:39:48.367Z,82.46
2018-04-11T02:40:48.373Z,82.75
2018-04-11T02:41:48.374Z,83.23
2018-04-11T02:42:48.375Z,83.23
2018-04-11T02:43:48.380Z,83.42
2018-04-11T02:44:48.451Z,83.51
2018-04-11T02:45:48.386Z,83.42
2018-04-11T02:46:48.391Z,83.61
2018-04-11T02:47:48.390Z,83.51
2018-04-11T02:48:48.400Z,83.80
2018-04-11T02:49:48.399Z,83.61
2018-04-11T02:50:48.410Z,83.67
2018-04-11T02:51:48.402Z,83.86
2018-04-11T02:52:48.409Z,83.95
2018-04-11T02:53:48.421Z,83.95
2018-04-11T02:54:48.413Z,84.14
2018-04-11T02:55:48.423Z,84.05
2018-04-11T02:56:48.425Z,83.86
2018-04-11T02:57:48.426Z,83.86
2018-04-11T02:58:48.438Z,83.76
2018-04-11T02:59:48.431Z,83.95
2018-04-11T03:00:48.441Z,83.76
2018-04-11T03:01:48.445Z,84.23
2018-04-11T03:02:48.439Z,84.43
2018-04-11T03:03:48.439Z,84.05
2018-04-11T03:04:48.452Z,84.14
2018-04-11T03:05:48.448Z,84.14
2018-04-11T03:06:48.460Z,83.95
2018-04-11T03:07:48.463Z,84.29
2018-04-11T03:08:48.462Z,84.58
2018-04-11T03:09:48.470Z,84.52
2018-04-11T03:10:48.466Z,84.39
2018-04-11T03:11:48.482Z,84.33
2018-04-11T03:12:48.480Z,84.29
2018-04-11T03:13:48.482Z,84.20
2018-04-11T03:14:48.477Z,84.10
2018-04-11T03:15:48.540Z,84.29
2018-04-11T03:16:48.489Z,83.91
2018-04-11T03:17:48.497Z,84.10
2018-04-11T03:18:48.495Z,84.39
2018-04-11T03:19:48.497Z,83.91
2018-04-11T03:20:48.500Z,84.39
2018-04-11T03:21:48.541Z,84.67
2018-04-11T03:22:48.503Z,84.39
2018-04-11T03:23:48.507Z,84.39
2018-04-11T03:24:48.508Z,84.39
2018-04-11T03:25:48.523Z,84.29
2018-04-11T03:26:48.532Z,84.48
2018-04-11T03:27:48.522Z,84.29
2018-04-11T03:28:48.534Z,84.39
2018-04-11T03:29:48.536Z,84.39
2018-04-11T03:30:48.549Z,84.58
2018-04-11T03:31:48.534Z,84.20
2018-04-11T03:32:48.537Z,83.91
2018-04-11T03:33:48.545Z,84.29
2018-04-11T03:34:48.543Z,84.48
2018-04-11T03:35:48.551Z,84.39
2018-04-11T03:36:48.547Z,84.20
2018-04-11T03:37:48.553Z,84.48
2018-04-11T03:38:48.561Z,84.39
2018-04-11T03:39:48.552Z,84.53
2018-04-11T03:40:48.558Z,84.48
2018-04-11T03:41:48.561Z,84.53
2018-04-11T03:42:48.571Z,84.34
2018-04-11T03:43:48.569Z,84.34
2018-04-11T03:44:48.579Z,83.87
2018-04-11T03:45:48.572Z,84.16
2018-04-11T03:46:48.581Z,83.72
2018-04-11T03:47:48.582Z,84.10
2018-04-11T03:48:48.583Z,84.10
2018-04-11T03:49:48.587Z,84.16
2018-04-11T03:50:48.591Z,83.77
2018-04-11T03:51:48.598Z,83.77
2018-04-11T03:52:48.614Z,83.67
2018-04-11T03:53:48.603Z,83.77
2018-04-11T03:54:48.606Z,83.67
2018-04-11T03:55:48.619Z,83.67
2018-04-11T03:56:48.607Z,83.77
2018-04-11T03:57:49.289Z,83.87
2018-04-11T03:58:48.609Z,83.67
2018-04-11T03:59:48.612Z,83.77
2018-04-11T04:00:48.624Z,83.96
2018-04-11T04:01:48.626Z,84.06
2018-04-11T04:02:48.624Z,84.06
2018-04-11T04:03:48.639Z,84.06
2018-04-11T04:04:48.627Z,83.87
2018-04-11T04:05:48.634Z,83.96
2018-04-11T04:06:48.639Z,83.77
2018-04-11T04:07:48.669Z,83.67
2018-04-11T04:08:48.644Z,83.77
2018-04-11T04:09:48.651Z,84.44
2018-04-11T04:10:48.644Z,84.44
2018-04-11T04:11:48.649Z,83.96
2018-04-11T04:12:48.656Z,83.67
2018-04-11T04:13:48.689Z,83.77
2018-04-11T04:14:48.655Z,83.58
2018-04-11T04:15:48.667Z,83.77
2018-04-11T04:16:48.662Z,83.77
2018-04-11T04:17:48.675Z,83.96
2018-04-11T04:18:48.672Z,84.25
2018-04-11T04:19:48.682Z,84.25
2018-04-11T04:20:48.689Z,83.77
2018-04-11T04:21:48.682Z,83.96
2018-04-11T04:22:48.704Z,83.58
2018-04-11T04:23:48.773Z,83.77
2018-04-11T04:24:48.693Z,83.96
2018-04-11T04:25:48.692Z,83.58
2018-04-11T04:26:48.697Z,83.96
2018-04-11T04:27:48.701Z,83.92
2018-04-11T04:28:48.700Z,84.40
2018-04-11T04:29:48.702Z,83.96
2018-04-11T04:30:48.699Z,84.11
2018-04-11T04:31:48.703Z,83.64
2018-04-11T04:32:48.747Z,83.92
2018-04-11T04:33:48.711Z,84.20
2018-04-11T04:34:48.723Z,84.11
2018-04-11T04:35:53.310Z,84.40
2018-04-11T04:36:48.731Z,83.83
2018-04-11T04:37:48.724Z,84.11
2018-04-11T04:38:48.727Z,84.20
2018-04-11T04:39:48.735Z,84.20
2018-04-11T04:40:48.732Z,83.92
2018-04-11T04:41:48.739Z,83.96
2018-04-11T04:42:48.755Z,83.87
2018-04-11T04:43:48.758Z,83.48
2018-04-11T04:44:48.743Z,83.64
2018-04-11T04:45:48.763Z,83.77
2018-04-11T04:46:48.751Z,83.87
2018-04-11T04:47:48.750Z,84.06
2018-04-11T04:48:48.757Z,84.01
2018-04-11T04:49:48.754Z,83.92
2018-04-11T04:50:48.760Z,83.54
2018-04-11T04:51:48.764Z,84.11
2018-04-11T04:52:48.763Z,84.30
2018-04-11T04:53:48.768Z,84.20
2018-04-11T04:54:48.768Z,83.83
2018-04-11T04:55:48.779Z,83.73
2018-04-11T04:56:48.777Z,83.83
2018-04-11T04:57:48.779Z,83.73
2018-04-11T04:58:48.788Z,82.91
2018-04-11T04:59:48.796Z,83.54
2018-04-11T05:00:48.789Z,83.58
2018-04-11T05:01:48.793Z,83.54
2018-04-11T05:02:48.793Z,83.35
2018-04-11T05:03:48.799Z,83.44
2018-04-11T05:04:48.804Z,83.54
2018-04-11T05:05:48.807Z,83.54
2018-04-11T05:06:48.808Z,83.44
2018-04-11T05:07:48.814Z,83.73
2018-04-11T05:08:48.808Z,83.64
2018-04-11T05:09:48.825Z,83.83
2018-04-11T05:10:48.831Z,83.54
2018-04-11T05:11:48.843Z,84.11
2018-04-11T05:12:48.830Z,84.30
2018-04-11T05:13:48.826Z,83.83
2018-04-11T05:14:48.823Z,84.01
2018-04-11T05:15:48.829Z,84.49
2018-04-11T05:16:48.835Z,84.11
2018-04-11T05:17:48.830Z,83.83
2018-04-11T05:18:48.836Z,84.01
2018-04-11T05:19:48.836Z,83.83
2018-04-11T05:20:48.850Z,83.64
2018-04-11T05:21:48.850Z,83.73
2018-04-11T05:22:48.857Z,83.44
2018-04-11T05:23:48.851Z,82.97
2018-04-11T05:24:48.854Z,83.25
2018-04-11T05:25:48.859Z,83.35
2018-04-11T05:26:48.856Z,82.97
2018-04-11T05:27:48.856Z,83.29
2018-04-11T05:28:48.869Z,82.87
2018-04-11T05:29:48.872Z,82.63
2018-04-11T05:30:48.874Z,82.06
2018-04-11T05:31:48.874Z,82.24
2018-04-11T05:32:48.877Z,82.24
2018-04-11T05:33:48.877Z,82.24
2018-04-11T05:34:48.879Z,81.96
2018-04-11T05:35:48.878Z,81.58
2018-04-11T05:36:48.896Z,81.48
2018-04-11T05:37:48.899Z,81.48
2018-04-11T05:38:48.896Z,81.67
2018-04-11T05:39:48.898Z,81.01
2018-04-11T05:40:48.892Z,80.81
2018-04-11T05:41:48.903Z,81.67
2018-04-11T05:42:48.898Z,81.10
2018-04-11T05:43:48.907Z,81.48
2018-04-11T05:44:48.918Z,81.10
2018-04-11T05:45:48.915Z,81.10
2018-04-11T05:46:48.922Z,80.72
2018-04-11T05:47:48.932Z,80.43
2018-04-11T05:48:48.942Z,80.47
2018-04-11T05:49:48.935Z,80.28
2018-04-11T05:50:48.932Z,80.09
2018-04-11T05:51:48.949Z,79.43
2018-04-11T05:52:48.940Z,79.61
2018-04-11T05:53:48.942Z,79.23
2018-04-11T05:54:48.953Z,79.23
2018-04-11T05:55:48.948Z,79.04
2018-04-11T05:56:48.970Z,78.56
2018-04-11T05:57:48.971Z,78.09
2018-04-11T05:58:49.006Z,78.37
2018-04-11T05:59:48.976Z,78.94
2018-04-11T06:00:49.037Z,78.85
2018-04-11T06:01:48.996Z,79.14
2018-04-11T06:02:49.007Z,79.52
2018-04-11T06:03:48.968Z,79.33
2018-04-11T06:04:48.970Z,78.85
2018-04-11T06:05:48.970Z,79.61
2018-04-11T06:06:48.975Z,79.14
2018-04-11T06:07:49.827Z,79.23
2018-04-11T06:08:48.985Z,79.33
2018-04-11T06:09:48.987Z,79.33
2018-04-11T06:10:48.989Z,78.75
2018-04-11T06:11:48.997Z,78.31
2018-04-11T06:12:49.001Z,77.84
2018-04-11T06:13:49.002Z,76.82
2018-04-11T06:14:49.002Z,75.34
2018-04-11T06:15:49.006Z,73.55
2018-04-11T06:16:49.023Z,71.73
2018-04-11T06:17:49.022Z,70.78
2018-04-11T06:18:49.022Z,70.91
2018-04-11T06:19:49.028Z,69.99
2018-04-11T06:20:49.044Z,68.11
2018-04-11T06:21:49.040Z,67.25
2018-04-11T06:22:49.045Z,66.03
2018-04-11T06:23:49.049Z,64.69
2018-04-11T06:24:49.066Z,64.63
2018-04-11T06:25:49.051Z,62.74
2018-04-11T06:26:49.068Z,61.69
2018-04-11T06:27:49.049Z,62.16
2018-04-11T06:28:49.051Z,61.59
2018-04-11T06:29:49.086Z,61.02
2018-04-11T06:30:49.057Z,61.59
2018-04-11T06:31:49.086Z,62.04
2018-04-11T06:32:49.066Z,62.07
2018-04-11T06:33:49.154Z,62.04
2018-04-11T06:34:49.076Z,62.45
2018-04-11T06:35:49.090Z,60.38
2018-04-11T06:36:49.088Z,59.19
2018-04-11T06:37:49.101Z,56.98
2018-04-11T06:38:49.095Z,57.07
2018-04-11T06:39:49.102Z,57.07
2018-04-11T06:40:49.117Z,56.88
2018-04-11T06:41:49.113Z,56.88
2018-04-11T06:42:49.131Z,57.07
2018-04-11T06:43:49.133Z,56.62
2018-04-11T06:44:49.131Z,55.20
2018-04-11T06:45:49.147Z,54.63
2018-04-11T06:46:49.145Z,54.24
2018-04-11T06:47:49.163Z,53.40
2018-04-11T06:48:49.159Z,52.18
2018-04-11T06:49:49.188Z,51.41
2018-04-11T06:50:49.295Z,51.05
2018-04-11T06:51:49.194Z,50.85
2018-04-11T06:52:49.273Z,50.85
2018-04-11T06:53:49.203Z,51.05
2018-04-11T06:54:49.212Z,51.50
2018-04-11T06:55:49.221Z,52.25
2018-04-11T06:56:49.222Z,53.19
2018-04-11T06:57:49.232Z,54.77
2018-04-11T06:58:49.242Z,55.24
2018-04-11T06:59:49.245Z,55.18
2018-04-11T07:00:49.262Z,55.08
2018-04-11T07:01:49.272Z,54.99
2018-04-11T07:02:49.276Z,54.24
2018-04-11T07:03:49.291Z,53.66
2018-04-11T07:04:49.293Z,53.38
2018-04-11T07:05:49.495Z,53.11
2018-04-11T07:06:49.315Z,53.57
2018-04-11T07:07:49.319Z,53.57
2018-04-11T07:08:49.333Z,53.21
2018-04-11T07:09:49.348Z,53.40
2018-04-11T07:10:49.344Z,53.40
2018-04-11T07:11:49.394Z,52.63
2018-04-11T07:12:49.376Z,52.63
2018-04-11T07:13:49.389Z,51.79
2018-04-11T07:14:49.384Z,51.34
2018-04-11T07:15:49.406Z,50.01
2018-04-11T07:16:49.412Z,49.43
2018-04-11T07:17:49.414Z,49.05
2018-04-11T07:18:49.435Z,48.76
2018-04-11T07:19:49.434Z,49.15
2018-04-11T07:20:49.447Z,49.41
2018-04-11T07:21:49.467Z,49.99
2018-04-11T07:22:49.483Z,50.27
2018-04-11T07:23:49.477Z,49.15
2018-04-11T07:24:49.484Z,48.33
2018-04-11T07:25:49.508Z,46.90
2018-04-11T07:26:49.521Z,46.20
2018-04-11T07:27:49.514Z,47.34
2018-04-11T07:28:49.534Z,47.92
2018-04-11T07:29:49.538Z,48.11
2018-04-11T07:30:49.556Z,47.27
2018-04-11T07:31:49.564Z,46.51
2018-04-11T07:32:49.571Z,45.84
2018-04-11T07:33:49.647Z,45.38
2018-04-11T07:34:49.669Z,44.80
2018-04-11T07:35:49.609Z,46.18
2018-04-11T07:36:49.731Z,46.69
2018-04-11T07:37:49.725Z,46.33
2018-04-11T07:38:49.635Z,46.30
2018-04-11T07:39:49.768Z,46.30
2018-04-11T07:40:49.671Z,46.20
2018-04-11T07:41:49.677Z,47.24
2018-04-11T07:42:49.693Z,47.60
2018-04-11T07:43:49.702Z,48.95
2018-04-11T07:44:49.715Z,48.40
2018-04-11T07:45:49.749Z,47.17
2018-04-11T07:46:49.915Z,45.86
2018-04-11T07:47:49.767Z,44.87
2018-04-11T07:48:49.762Z,45.45
2018-04-11T07:49:49.770Z,45.84
2018-04-11T07:50:49.791Z,45.75
2018-04-11T07:51:49.800Z,44.24
2018-04-11T07:52:49.811Z,43.47
2018-04-11T07:53:49.827Z,42.74
2018-04-11T07:54:49.842Z,42.07
2018-04-11T07:55:49.856Z,41.82
2018-04-11T07:56:49.880Z,40.63
2018-04-11T07:57:49.891Z,41.60
2018-04-11T07:58:49.895Z,41.85
2018-04-11T07:59:49.906Z,42.87
2018-04-11T08:00:49.919Z,44.32
2018-04-11T08:01:49.934Z,43.95
2018-04-11T08:02:49.965Z,43.03
2018-04-11T08:03:49.963Z,41.58
2018-04-11T08:04:49.968Z,41.67
2018-04-11T08:05:50.065Z,42.25
2018-04-11T08:06:49.995Z,42.14
2018-04-11T08:07:50.013Z,42.62
2018-04-11T08:08:50.867Z,42.52
2018-04-11T08:09:50.047Z,42.91
2018-04-11T08:10:50.059Z,42.33
2018-04-11T08:11:50.072Z,42.55
2018-04-11T08:12:50.086Z,42.72
2018-04-11T08:13:50.095Z,42.07
2018-04-11T08:14:50.122Z,41.70
2018-04-11T08:15:50.125Z,40.65
2018-04-11T08:16:50.142Z,40.17
2018-04-11T08:17:50.153Z,39.51
2018-04-11T08:18:50.171Z,39.41
2018-04-11T08:19:50.182Z,39.16
2018-04-11T08:20:50.204Z,38.66
2018-04-11T08:21:50.210Z,39.04
2018-04-11T08:22:50.318Z,39.24
2018-04-11T08:23:50.246Z,38.40
2018-04-11T08:24:50.258Z,37.35
2018-04-11T08:25:50.273Z,37.41
2018-04-11T08:26:50.297Z,37.61
2018-04-11T08:27:50.310Z,38.07
2018-04-11T08:28:50.319Z,38.85
2018-04-11T08:29:50.402Z,38.29
2018-04-11T08:30:50.350Z,38.19
2018-04-11T08:31:50.370Z,37.71
2018-04-11T08:32:50.392Z,37.69
2018-04-11T08:33:50.400Z,38.17
2018-04-11T08:34:50.426Z,39.39
2018-04-11T08:35:50.440Z,39.97
2018-04-11T08:36:50.449Z,40.07
2018-04-11T08:37:50.478Z,39.88
2018-04-11T08:38:50.487Z,39.14
2018-04-11T08:39:50.502Z,38.76
2018-04-11T08:40:50.527Z,38.27
2018-04-11T08:41:50.727Z,38.29
2018-04-11T08:42:50.770Z,37.81
2018-04-11T08:43:50.569Z,38.37
2018-04-11T08:44:50.587Z,39.12
2018-04-11T08:45:50.607Z,39.39
2018-04-11T08:46:50.642Z,40.17
2018-04-11T08:47:50.653Z,39.90
2018-04-11T08:48:50.664Z,39.39
2018-04-11T08:49:50.681Z,39.51
2018-04-11T08:50:50.688Z,39.32
2018-04-11T08:51:50.710Z,39.61
2018-04-11T08:52:50.727Z,39.03
2018-04-11T08:53:50.740Z,38.64
2018-04-11T08:54:50.767Z,39.29
2018-04-11T08:55:50.774Z,39.22
2018-04-11T08:56:50.799Z,39.03
2018-04-11T08:57:50.822Z,39.78
2018-04-11T08:58:50.837Z,40.17
2018-04-11T08:59:50.846Z,39.95
2018-04-11T09:00:50.865Z,40.17
2018-04-11T09:01:50.889Z,40.17
2018-04-11T09:02:50.895Z,39.97
2018-04-11T09:03:50.920Z,39.32
2018-04-11T09:04:50.937Z,39.32
2018-04-11T09:05:50.956Z,39.70
2018-04-11T09:06:50.970Z,39.51
2018-04-11T09:07:50.993Z,38.87
2018-04-11T09:08:51.023Z,38.85
2018-04-11T09:09:51.027Z,38.81
2018-04-11T09:10:51.039Z,40.26
2018-04-11T09:11:51.059Z,40.81
2018-04-11T09:12:51.072Z,41.58
2018-04-11T09:13:51.093Z,41.02
2018-04-11T09:14:51.295Z,40.17
2018-04-11T09:15:51.127Z,39.80
2018-04-11T09:16:51.152Z,40.09
2018-04-11T09:17:51.163Z,39.69
2018-04-11T09:18:51.180Z,40.00
2018-04-11T09:19:51.211Z,40.19
2018-04-11T09:20:51.288Z,39.04
2018-04-11T09:21:51.244Z,39.14
2018-04-11T09:22:51.260Z,39.70
2018-04-11T09:23:51.292Z,40.26
2018-04-11T09:24:51.304Z,40.19
2018-04-11T09:25:51.315Z,40.21
2018-04-11T09:26:51.334Z,39.22
2018-04-11T09:27:51.356Z,39.72
2018-04-11T09:28:51.405Z,39.41
2018-04-11T09:29:51.439Z,39.61
2018-04-11T09:30:51.396Z,39.78
2018-04-11T09:31:51.470Z,40.65
2018-04-11T09:32:51.430Z,41.77
2018-04-11T09:33:51.451Z,42.35
2018-04-11T09:34:51.465Z,41.62
2018-04-11T09:35:51.484Z,41.58
2018-04-11T09:36:51.497Z,42.35
2018-04-11T09:37:51.524Z,43.01
2018-04-11T09:38:51.539Z,42.65
2018-04-11T09:39:51.552Z,42.28
2018-04-11T09:40:51.572Z,42.55
2018-04-11T09:41:51.611Z,42.91
2018-04-11T09:42:51.657Z,42.93
2018-04-11T09:43:51.640Z,42.66
2018-04-11T09:44:51.650Z,42.18
2018-04-11T09:45:51.664Z,42.18
2018-04-11T09:46:51.694Z,42.18
2018-04-11T09:47:51.709Z,42.57
2018-04-11T09:48:51.715Z,42.76
2018-04-11T09:49:51.732Z,41.89
2018-04-11T09:50:51.742Z,41.62
2018-04-11T09:51:51.762Z,41.72
2018-04-11T09:52:51.781Z,41.72
2018-04-11T09:53:51.814Z,41.04
2018-04-11T09:54:51.811Z,41.14
2018-04-11T09:55:51.832Z,42.35
2018-04-11T09:56:51.852Z,43.40
2018-04-11T09:57:51.864Z,43.66
2018-04-11T09:58:51.889Z,43.88
2018-04-11T09:59:51.905Z,43.68
2018-04-11T10:00:51.927Z,43.59
2018-04-11T10:01:51.942Z,44.05
2018-04-11T10:02:51.954Z,44.07
2018-04-11T10:03:51.976Z,43.88
2018-04-11T10:04:51.987Z,43.88
2018-04-11T10:05:52.017Z,43.49
2018-04-11T10:06:52.064Z,43.59
2018-04-11T10:07:52.038Z,44.07
2018-04-11T10:08:52.066Z,43.71
2018-04-11T10:09:52.074Z,42.66
2018-04-11T10:10:52.098Z,42.66
2018-04-11T10:11:52.118Z,41.91
2018-04-11T10:12:52.125Z,41.62
2018-04-11T10:13:58.237Z,41.72
2018-04-11T10:14:52.160Z,41.52
2018-04-11T10:15:52.190Z,41.79
2018-04-11T10:16:52.205Z,41.60
2018-04-11T10:17:52.215Z,42.18
2018-04-11T10:18:52.263Z,41.91
2018-04-11T10:19:52.253Z,41.64
2018-04-11T10:20:52.266Z,41.06
2018-04-11T10:21:52.311Z,40.67
2018-04-11T10:22:52.299Z,41.74
2018-04-11T10:23:52.316Z,40.96
2018-04-11T10:24:52.379Z,41.72
2018-04-11T10:25:52.360Z,41.42
2018-04-11T10:26:52.376Z,41.99
2018-04-11T10:27:52.393Z,42.10
2018-04-11T10:28:52.411Z,41.62
2018-04-11T10:29:52.507Z,42.20
2018-04-11T10:30:52.444Z,42.78
2018-04-11T10:31:52.550Z,43.05
2018-04-11T10:32:52.475Z,43.05
2018-04-11T10:33:52.488Z,43.05
2018-04-11T10:34:52.517Z,42.76
2018-04-11T10:35:52.537Z,43.61
2018-04-11T10:36:52.543Z,44.09
2018-04-11T10:37:52.569Z,43.82
2018-04-11T10:38:52.580Z,43.34
2018-04-11T10:39:52.600Z,43.23
2018-04-11T10:40:52.618Z,43.61
2018-04-11T10:41:52.626Z,44.17
2018-04-11T10:42:52.658Z,45.21
2018-04-11T10:43:52.666Z,45.38
2018-04-11T10:44:52.682Z,45.86
2018-04-11T10:45:52.707Z,46.25
2018-04-11T10:46:52.710Z,45.96
2018-04-11T10:47:52.731Z,46.73
2018-04-11T10:48:52.746Z,47.31
2018-04-11T10:49:52.770Z,47.80
2018-04-11T10:50:52.775Z,47.80
2018-04-11T10:51:52.800Z,47.48
2018-04-11T10:52:52.813Z,48.13
2018-04-11T10:53:52.827Z,49.29
2018-04-11T10:54:52.837Z,49.46
2018-04-11T10:55:52.853Z,50.32
2018-04-11T10:56:52.865Z,50.98
2018-04-11T10:57:52.886Z,50.49
2018-04-11T10:58:52.885Z,50.32
2018-04-11T10:59:52.911Z,50.32
2018-04-11T11:00:52.964Z,49.94
2018-04-11T11:01:52.923Z,50.04
2018-04-11T11:02:52.943Z,50.13
2018-04-11T11:03:52.946Z,50.35
2018-04-11T11:04:52.966Z,49.96
2018-04-11T11:05:52.981Z,50.06
2018-04-11T11:06:52.991Z,50.52
2018-04-11T11:07:53.015Z,50.90
2018-04-11T11:08:53.005Z,51.00
2018-04-11T11:09:53.042Z,50.81
2018-04-11T11:10:53.043Z,50.71
2018-04-11T11:11:53.040Z,50.16
2018-04-11T11:12:53.058Z,50.16
2018-04-11T11:13:53.060Z,50.90
2018-04-11T11:14:53.081Z,50.62
2018-04-11T11:15:53.093Z,51.10
2018-04-11T11:16:53.092Z,51.46
2018-04-11T11:17:53.111Z,51.94
2018-04-11T11:18:53.116Z,52.23
2018-04-11T11:19:53.162Z,51.48
2018-04-11T11:20:53.150Z,51.10
2018-04-11T11:21:53.155Z,50.26
2018-04-11T11:22:53.185Z,50.35
2018-04-11T11:23:53.191Z,49.80
2018-04-11T11:24:53.190Z,49.12
2018-04-11T11:25:53.188Z,48.66
2018-04-11T11:26:53.205Z,48.18
2018-04-11T11:27:53.218Z,48.57
2018-04-11T11:28:53.224Z,47.33
2018-04-11T11:29:53.231Z,47.70
2018-04-11T11:30:53.254Z,48.08
2018-04-11T11:31:53.256Z,48.08
2018-04-11T11:32:53.272Z,48.25
2018-04-11T11:33:53.281Z,48.37
2018-04-11T11:34:53.286Z,48.83
2018-04-11T11:35:53.302Z,49.32
2018-04-11T11:36:53.319Z,49.19
2018-04-11T11:37:53.318Z,49.48
2018-04-11T11:38:53.338Z,49.48
2018-04-11T11:39:53.343Z,50.16
2018-04-11T11:40:53.359Z,50.42
2018-04-11T11:41:53.373Z,50.26
2018-04-11T11:42:53.383Z,50.52
2018-04-11T11:43:53.390Z,51.00
2018-04-11T11:44:53.409Z,51.00
2018-04-11T11:45:53.427Z,50.81
2018-04-11T11:46:53.434Z,50.93
2018-04-11T11:47:53.439Z,50.62
2018-04-11T11:48:53.450Z,50.90
2018-04-11T11:49:53.463Z,51.10
2018-04-11T11:50:53.464Z,51.17
2018-04-11T11:51:54.464Z,51.56
2018-04-11T11:52:53.486Z,51.94
2018-04-11T11:53:53.498Z,52.52
2018-04-11T11:54:53.512Z,53.19
2018-04-11T11:55:53.515Z,54.22
2018-04-11T11:56:53.527Z,55.35
2018-04-11T11:57:53.563Z,55.65
2018-04-11T11:58:53.561Z,56.41
2018-04-11T11:59:53.555Z,56.22
2018-04-11T12:00:53.572Z,56.60
2018-04-11T12:01:53.580Z,56.25
2018-04-11T12:02:53.580Z,55.55
2018-04-11T12:03:53.594Z,56.51
2018-04-11T12:04:53.612Z,56.12
2018-04-11T12:05:53.612Z,56.32
2018-04-11T12:06:53.658Z,56.32
2018-04-11T12:07:53.660Z,56.41
2018-04-11T12:08:53.642Z,55.87
2018-04-11T12:09:53.642Z,55.38
2018-04-11T12:10:53.658Z,55.87
2018-04-11T12:11:53.665Z,55.48
2018-04-11T12:12:53.674Z,56.15
2018-04-11T12:13:53.681Z,56.05
2018-04-11T12:14:53.691Z,55.19
2018-04-11T12:15:53.699Z,55.48
2018-04-11T12:16:53.711Z,55.67
2018-04-11T12:17:53.712Z,55.35
2018-04-11T12:18:53.730Z,56.51
2018-04-11T12:19:53.733Z,56.41
2018-04-11T12:20:53.744Z,56.70
2018-04-11T12:21:53.761Z,56.32
2018-04-11T12:22:53.756Z,56.67
2018-04-11T12:23:53.770Z,56.58
2018-04-11T12:24:53.786Z,57.15
2018-04-11T12:25:53.794Z,57.90
2018-04-11T12:26:53.793Z,57.99
2018-04-11T12:27:53.961Z,58.18
2018-04-11T12:28:53.808Z,58.28
2018-04-11T12:29:53.819Z,58.76
2018-04-11T12:30:53.872Z,58.47
2018-04-11T12:31:53.851Z,58.67
2018-04-11T12:32:53.849Z,58.57
2018-04-11T12:33:53.872Z,58.76
2018-04-11T12:34:53.857Z,58.86
2018-04-11T12:35:53.864Z,58.70
2018-04-11T12:36:53.879Z,58.02
2018-04-11T12:37:53.878Z,57.45
2018-04-11T12:38:53.905Z,56.96
2018-04-11T12:39:53.894Z,56.51
2018-04-11T12:40:53.959Z,56.25
2018-04-11T12:41:53.921Z,55.29
2018-04-11T12:42:53.923Z,55.09
2018-04-11T12:43:53.938Z,54.90
2018-04-11T12:44:53.936Z,55.45
2018-04-11T12:45:53.956Z,55.45
2018-04-11T12:46:53.960Z,55.48
2018-04-11T12:47:53.963Z,55.29
2018-04-11T12:48:53.968Z,55.48
2018-04-11T12:49:53.973Z,55.29
2018-04-11T12:50:53.997Z,55.57
2018-04-11T12:51:53.997Z,55.19
2018-04-11T12:52:54.000Z,55.67